Princeville, HI (96722)

10:34 PM HST on December 09, 2016 (GMT -1000)
North Shore of Kauai | | Change Station

Elev 200 ft 22.23 °N, 159.48 °W | Updated 9 seconds ago

Mostly Cloudy
Mostly Cloudy
70.0 °F
Feels Like 70.0 °F
N
0.0
Wind Variable Wind from SSE
Gusts 0.0 mph

Today
High -- | Low -- °F
--% Chance of Precip.
Yesterday
High -- | Low -- °F
Precip. -- in
Pressure 29.99 in
Visibility 10.0 miles
Clouds Scattered Clouds 2800 ft
Mostly Cloudy 4200 ft
Mostly Cloudy 4900 ft
Dew Point 70 °F
Humidity 100%
Rainfall 0.21 in
Snow Depth Not available.
7:06 AM 5:54 PM
Waxing Gibbous, 81% visible
METAR PHLI 100753Z AUTO 00000KT 10SM SCT028 BKN042 BKN049 23/21 A3000 RMK AO2 SLP155 T02280206 TSNO
Pressure 29.99 in
Visibility 10.0 miles
Clouds Scattered Clouds 2800 ft
Mostly Cloudy 4200 ft
Mostly Cloudy 4900 ft
Dew Point 70 °F
Humidity 100%
Rainfall 0.21 in
Snow Depth Not available.
7:06 AM 5:54 PM
Waxing Gibbous, 81% visible
METAR PHLI 100753Z AUTO 00000KT 10SM SCT028 BKN042 BKN049 23/21 A3000 RMK AO2 SLP155 T02280206 TSNO

10-Day Weather Forecast

Almanac

Astronomy

Dec. 09, 2016 Rise Set
Actual Time
Civil Twilight
Nautical Twilight
Astronomical Twilight
Moon
Length of Visible Light
Length of Day
Tomorrow will be .
, % of the Moon is Illuminated

Today's Extremes

State Highs State Lows

Community

WunderPhotos

Upload Photos

1,956,538 photos uploaded!

WunderBlog® & News

Nearby

Air Quality

  Air Quality AQ Index Pollutant
Not available.

Snow Depth

Station Depth Elevation

Earthquake Activity

City Distance Mag. Time & Date
Minimum magnitude displayed is 2.5.

Coastal Water Temperatures

Place Temperature

Stations

Nearby Weather Stations

Station Location Temp. Windchill Dew Point Humidity Wind Precip. Elev Updated Type
                   

Watches & Warnings

There are currently no watches in effect.